KBNW

Boone Municipal Airport

Boone, Iowa, USA
METAR KBNW 172055Z AUTO 06003KT 5SM HZ OVC037 03/M01 A2993 RMK AO2
Observed Flight Rules
Dec-17 @ 20:55 UTC (27 minutes ago) Marginal Visual Flight Rules
Wind Visibility Clouds Conditions
60° at 3 knots 5 miles
  • Overcast at 3,700' AGL
  • Haze
Temperatures Readings
Current 3°C / 37°F
Dewpoint -1°C / 30°F
Humidity 75%
Altimeter 29.93" Hg
Pressure 1014 hPa
Elevation 354
METAR KBNW 172055Z AUTO 06003KT 5SM HZ OVC037 03/M01 A2993 RMK AO2
Observed Flight Rules
Dec-17 @ 20:55 UTC
(27 minutes ago)
MVFR
Wind Visibility
60° at 3 knots 5 miles
Clouds
  • Overcast at 3,700' AGL
Conditions
  • Haze
Temperature Dewpoint
3°C / 37°F -1°C / 30°F
Humidity Altimeter Pressure
75% 29.93" Hg 1014 hPa